Time;durP1;ratioP1;P1;durP2;ratioP2;P2;SDS_P1;SDS_P2;PMS_P1;PMS_P2;Temp;Humidity;BMP_temperature;BMP_pressure;BME280_temperature;BME280_humidity;BME280_pressure;Samples;Min_cycle;Max_cycle;Signal;HPM_P1;HPM_P2
2021/08/01 00:01:22;;;;;;;4.20;2.65;;;;;;;21.28;55.06;100115.06;5035420;28;20044;-47
2021/08/01 00:03:48;;;;;;;3.47;3.17;;;;;;;21.27;55.50;100111.50;5051264;28;20021;-47
2021/08/01 00:06:13;;;;;;;3.00;2.80;;;;;;;21.27;55.05;100118.69;5052588;28;20027;-47
2021/08/01 00:08:41;;;;;;;2.60;2.40;;;;;;;21.26;55.46;100112.47;5047323;28;20032;-47
2021/08/01 00:11:06;;;;;;;3.17;2.58;;;;;;;21.27;55.59;100122.22;5049806;28;20033;-47
2021/08/01 00:13:32;;;;;;;2.75;2.55;;;;;;;21.26;55.75;100114.28;5049116;28;20032;-48
2021/08/01 00:15:59;;;;;;;3.00;2.65;;;;;;;21.25;55.47;100115.25;5034697;28;20051;-48
2021/08/01 00:18:24;;;;;;;3.58;2.55;;;;;;;21.24;55.52;100108.16;5050943;28;20367;-47
2021/08/01 00:20:49;;;;;;;2.83;2.63;;;;;;;21.24;55.22;100108.16;5051056;28;21173;-47
2021/08/01 00:23:14;;;;;;;2.85;2.55;;;;;;;21.22;55.67;100102.91;5044632;28;20025;-47
2021/08/01 00:25:40;;;;;;;2.97;2.67;;;;;;;21.22;55.30;100108.25;5028699;28;20029;-47
2021/08/01 00:28:05;;;;;;;2.97;2.70;;;;;;;21.21;55.50;100114.56;5051622;28;20466;-47
2021/08/01 00:30:31;;;;;;;2.97;2.28;;;;;;;21.21;55.34;100113.72;5050402;28;20075;-47
2021/08/01 00:32:56;;;;;;;3.03;2.72;;;;;;;21.21;55.42;100113.72;5035919;28;20028;-47
2021/08/01 00:35:21;;;;;;;3.60;2.95;;;;;;;21.19;55.98;100111.13;5052001;28;20115;-47
2021/08/01 00:37:46;;;;;;;2.88;2.67;;;;;;;21.19;55.45;100110.25;5031863;28;20037;-47
2021/08/01 00:40:12;;;;;;;2.55;2.35;;;;;;;21.18;55.45;100114.78;5048228;28;20076;-47
2021/08/01 00:42:40;;;;;;;3.15;2.83;;;;;;;21.18;55.56;100113.91;5030861;28;20020;-47
2021/08/01 00:45:07;;;;;;;3.03;2.50;;;;;;;21.17;55.43;100105.00;5048590;28;20039;-47
2021/08/01 00:47:34;;;;;;;3.75;2.50;;;;;;;21.17;56.12;100107.66;5052771;28;20108;-47
2021/08/01 00:50:05;;;;;;;2.58;2.35;;;;;;;21.15;55.34;100105.09;5054551;28;20027;-47
2021/08/01 00:52:31;;;;;;;2.55;2.35;;;;;;;21.14;56.26;100098.00;5051798;28;20063;-48
2021/08/01 00:54:56;;;;;;;4.38;2.58;;;;;;;21.14;56.02;100106.06;5032230;28;20029;-48
2021/08/01 00:57:21;;;;;;;2.60;2.40;;;;;;;21.14;55.96;100097.16;5053641;28;20095;-47
2021/08/01 00:59:47;;;;;;;4.10;2.53;;;;;;;21.13;55.86;100095.41;5051477;28;20067;-48
2021/08/01 01:02:15;;;;;;;3.15;2.55;;;;;;;21.12;56.09;100094.56;5048607;28;20075;-47
2021/08/01 01:05:07;;;;;;;3.63;2.72;;;;;;;21.12;56.05;100094.56;5050407;28;20024;-47
2021/08/01 01:08:15;;;;;;;2.60;2.40;;;;;;;21.12;55.88;100091.91;5032441;28;20044;-47
2021/08/01 01:10:42;;;;;;;2.30;2.10;;;;;;;21.10;56.17;100095.59;5013035;28;20029;-47
2021/08/01 01:13:18;;;;;;;2.50;2.30;;;;;;;21.09;55.99;100099.25;5021138;28;20045;-48
2021/08/01 01:15:48;;;;;;;2.58;2.38;;;;;;;21.06;56.43;100097.63;5023991;28;20104;-47
2021/08/01 01:18:16;;;;;;;3.13;2.83;;;;;;;21.08;56.19;100094.84;5043067;28;20025;-48
2021/08/01 01:21:03;;;;;;;2.95;2.75;;;;;;;21.08;55.49;100097.53;5030025;28;20021;-47
2021/08/01 01:23:52;;;;;;;2.65;2.45;;;;;;;21.06;56.02;100099.44;5030145;28;20021;-47
2021/08/01 01:26:28;;;;;;;2.72;2.53;;;;;;;21.05;56.00;100093.25;5044866;28;20025;-47
2021/08/01 01:29:26;;;;;;;2.85;2.60;;;;;;;21.05;55.71;100084.31;5048257;28;20136;-47
2021/08/01 01:32:01;;;;;;;2.67;2.42;;;;;;;21.01;55.83;100076.47;5048886;28;20029;-46
2021/08/01 01:34:38;;;;;;;3.47;2.38;;;;;;;21.02;56.39;100080.03;5020120;28;20029;-47
2021/08/01 01:37:09;;;;;;;2.55;2.40;;;;;;;21.01;56.21;100079.16;5049232;28;20024;-47
2021/08/01 01:39:37;;;;;;;2.42;2.20;;;;;;;21.01;56.15;100086.34;5024432;28;20017;-48
2021/08/01 01:42:03;;;;;;;2.67;2.13;;;;;;;21.00;56.20;100089.97;5031728;28;20090;-47
2021/08/01 01:44:29;;;;;;;2.58;2.38;;;;;;;21.00;55.98;100085.47;5047604;28;20038;-47
2021/08/01 01:46:55;;;;;;;3.25;2.75;;;;;;;20.99;55.91;100088.25;5032041;28;20040;-47
2021/08/01 01:49:21;;;;;;;2.70;2.50;;;;;;;20.98;56.11;100067.78;5027739;28;20498;-48
2021/08/01 01:51:46;;;;;;;2.70;2.50;;;;;;;20.98;56.06;100081.16;5013076;28;20028;-47
2021/08/01 01:54:12;;;;;;;2.40;2.20;;;;;;;20.98;56.32;100076.66;5043867;28;20395;-47
2021/08/01 01:56:39;;;;;;;2.60;2.40;;;;;;;20.96;56.30;100075.03;5041681;28;20375;-45
2021/08/01 01:59:04;;;;;;;2.60;2.20;;;;;;;20.96;56.21;100077.72;5033053;28;20070;-47
2021/08/01 02:01:30;;;;;;;3.60;2.70;;;;;;;20.95;55.86;100081.34;5033821;28;20016;-47
2021/08/01 02:03:55;;;;;;;2.80;2.60;;;;;;;20.96;56.24;100083.06;5050196;28;20107;-47
2021/08/01 02:06:21;;;;;;;3.05;2.55;;;;;;;20.95;55.96;100073.31;5046601;28;20042;-47
2021/08/01 02:09:12;;;;;;;3.13;2.88;;;;;;;20.95;55.85;100081.34;5045901;28;20033;-47
2021/08/01 02:11:45;;;;;;;2.83;2.55;;;;;;;20.93;55.76;100076.09;5046660;28;20052;-47
2021/08/01 02:14:15;;;;;;;4.22;2.80;;;;;;;20.92;55.67;100082.41;5048462;28;20082;-48
2021/08/01 02:16:46;;;;;;;2.33;2.13;;;;;;;20.92;55.80;100085.09;5051804;28;20429;-48
2021/08/01 02:19:12;;;;;;;2.88;2.67;;;;;;;20.91;55.40;100079.81;5036258;28;20036;-46
2021/08/01 02:21:39;;;;;;;2.70;2.50;;;;;;;20.91;55.78;100082.50;5033870;28;20057;-47
2021/08/01 02:24:05;;;;;;;2.92;2.72;;;;;;;20.91;55.32;100074.47;5052680;28;20025;-47
2021/08/01 02:26:31;;;;;;;2.55;2.35;;;;;;;20.90;56.12;100078.97;5050510;28;20044;-48
2021/08/01 02:28:57;;;;;;;3.65;2.40;;;;;;;20.89;55.49;100078.13;5035354;28;20032;-48
2021/08/01 02:31:24;;;;;;;2.40;2.20;;;;;;;20.90;55.39;100089.69;5051371;28;20037;-47
2021/08/01 02:33:49;;;;;;;3.00;2.80;;;;;;;20.89;55.72;100093.31;5024668;28;20083;-47
2021/08/01 02:36:17;;;;;;;2.83;2.63;;;;;;;20.90;55.35;100089.69;5033794;28;20040;-47
2021/08/01 02:38:45;;;;;;;3.22;2.92;;;;;;;20.89;55.61;100093.31;5036872;28;20067;-47
2021/08/01 02:41:30;;;;;;;2.22;2.03;;;;;;;20.89;55.33;100083.47;5036696;28;20060;-46
2021/08/01 02:44:02;;;;;;;2.33;2.13;;;;;;;20.88;55.18;100076.38;5038227;28;20071;-47
2021/08/01 02:46:29;;;;;;;2.50;2.30;;;;;;;20.87;55.38;100081.78;5045545;28;20029;-47
2021/08/01 02:48:56;;;;;;;4.05;2.30;;;;;;;20.85;55.03;100076.56;5035648;28;20087;-47
2021/08/01 02:51:22;;;;;;;3.40;2.65;;;;;;;20.87;55.33;100095.19;5035242;28;20024;-47
2021/08/01 02:53:50;;;;;;;3.15;2.47;;;;;;;20.86;55.15;100089.00;5014438;28;20029;-47
2021/08/01 02:56:19;;;;;;;2.88;2.47;;;;;;;20.85;55.12;100089.94;5034619;28;20025;-47
2021/08/01 02:58:46;;;;;;;2.40;2.20;;;;;;;20.85;54.98;100092.63;5053537;28;20025;-47
2021/08/01 03:01:11;;;;;;;6.07;2.40;;;;;;;20.83;55.16;100082.94;5035179;28;20029;-46
2021/08/01 03:03:37;;;;;;;4.20;2.85;;;;;;;20.83;55.17;100091.84;5037063;28;20079;-47
2021/08/01 03:06:04;;;;;;;2.67;2.30;;;;;;;20.83;55.32;100090.97;5034742;28;20040;-47
2021/08/01 03:08:32;;;;;;;2.85;2.65;;;;;;;20.81;55.21;100093.75;5036347;28;20107;-47
2021/08/01 03:10:57;;;;;;;2.45;2.25;;;;;;;20.82;55.11;100086.59;5034577;28;20029;-47
2021/08/01 03:13:23;;;;;;;2.58;2.38;;;;;;;20.80;55.25;100084.00;5053252;28;20367;-47
2021/08/01 03:15:48;;;;;;;4.18;2.38;;;;;;;20.80;55.29;100081.31;5053225;28;20551;-47
2021/08/01 03:18:13;;;;;;;2.58;2.28;;;;;;;20.79;55.10;100074.25;5032849;28;20025;-46
2021/08/01 03:20:39;;;;;;;2.30;2.10;;;;;;;20.77;55.13;100068.97;5050021;28;20394;-47
2021/08/01 03:23:04;;;;;;;2.63;2.42;;;;;;;20.77;55.19;100084.19;5053507;28;20433;-48
2021/08/01 03:25:30;;;;;;;3.28;2.58;;;;;;;20.77;55.09;100084.19;5048936;28;20025;-47
2021/08/01 03:27:55;;;;;;;2.33;2.13;;;;;;;20.76;55.29;100086.00;5050999;28;20040;-48
2021/08/01 03:30:20;;;;;;;2.33;2.13;;;;;;;20.75;55.08;100086.94;5053337;28;20374;-47
2021/08/01 03:32:46;;;;;;;2.60;2.40;;;;;;;20.74;54.96;100085.22;5034070;28;20032;-47
2021/08/01 03:35:11;;;;;;;2.92;2.60;;;;;;;20.74;55.01;100085.22;5050797;28;20031;-47
2021/08/01 03:37:36;;;;;;;3.17;2.33;;;;;;;20.74;55.08;100095.13;5049953;28;20052;-46
2021/08/01 03:40:02;;;;;;;2.63;2.42;;;;;;;20.73;55.03;100088.88;5053496;28;20028;-47
2021/08/01 03:42:27;;;;;;;3.45;2.45;;;;;;;20.72;55.00;100078.25;5051491;28;20016;-48
2021/08/01 03:44:52;;;;;;;2.63;2.42;;;;;;;20.71;55.05;100079.22;5034388;28;20037;-47
2021/08/01 03:47:18;;;;;;;2.63;2.42;;;;;;;20.71;55.06;100080.06;5054029;28;20024;-47
2021/08/01 03:49:44;;;;;;;2.65;2.33;;;;;;;20.69;54.98;100067.72;5048083;28;20037;-47
2021/08/01 03:52:10;;;;;;;3.50;2.35;;;;;;;20.69;55.20;100073.06;5027918;28;20497;-47
2021/08/01 03:54:35;;;;;;;2.33;2.13;;;;;;;20.70;55.13;100077.47;5048672;28;20025;-46
2021/08/01 03:57:00;;;;;;;2.72;2.08;;;;;;;20.68;54.98;100072.22;5048362;28;20024;-47
2021/08/01 03:59:26;;;;;;;5.65;2.70;;;;;;;20.68;54.99;100074.03;5048444;28;20025;-47
2021/08/01 04:01:51;;;;;;;2.63;2.42;;;;;;;20.66;55.17;100076.81;5049576;28;20742;-46
2021/08/01 04:04:16;;;;;;;3.03;2.72;;;;;;;20.66;55.17;100075.94;5047098;28;20025;-46
2021/08/01 04:06:41;;;;;;;5.13;3.05;;;;;;;20.66;55.20;100083.97;5044656;28;20037;-47
2021/08/01 04:09:07;;;;;;;3.58;2.60;;;;;;;20.63;54.97;100077.88;5048302;28;20029;-45
2021/08/01 04:11:33;;;;;;;5.22;3.10;;;;;;;20.62;55.09;100075.28;5020576;28;20025;-45
2021/08/01 04:13:59;;;;;;;3.30;2.40;;;;;;;20.63;55.23;100083.22;5049858;28;20517;-45
2021/08/01 04:16:24;;;;;;;4.15;3.00;;;;;;;20.60;55.24;100078.03;5050179;28;20070;-45
2021/08/01 04:18:49;;;;;;;2.60;2.40;;;;;;;20.62;55.21;100078.81;5054753;28;20027;-45
2021/08/01 04:21:15;;;;;;;2.53;2.33;;;;;;;20.61;55.24;100084.28;5050748;28;20425;-45
2021/08/01 04:23:41;;;;;;;2.85;2.65;;;;;;;20.60;55.26;100088.75;5051542;28;20517;-45
2021/08/01 04:26:08;;;;;;;2.90;2.70;;;;;;;20.59;55.25;100081.69;5049413;28;20104;-45
2021/08/01 04:28:33;;;;;;;4.18;2.67;;;;;;;20.58;55.33;100069.22;5050910;28;20074;-45
2021/08/01 04:30:59;;;;;;;3.03;2.67;;;;;;;20.57;55.55;100077.38;5045546;28;20033;-45
2021/08/01 04:33:24;;;;;;;4.35;2.63;;;;;;;20.58;55.40;100073.75;5050451;28;20021;-45
2021/08/01 04:35:50;;;;;;;3.40;3.10;;;;;;;20.55;55.52;100074.78;5052673;28;20033;-45
2021/08/01 04:38:15;;;;;;;3.20;2.88;;;;;;;20.56;55.40;100081.00;5035151;28;20502;-45
2021/08/01 04:40:41;;;;;;;3.95;2.58;;;;;;;20.55;55.31;100087.31;5034010;28;20028;-45
2021/08/01 04:43:06;;;;;;;3.35;2.60;;;;;;;20.55;55.31;100080.16;5031006;28;20320;-45
2021/08/01 04:45:31;;;;;;;2.72;2.50;;;;;;;20.54;55.42;100081.09;5046592;28;20031;-44
2021/08/01 04:47:57;;;;;;;2.95;2.75;;;;;;;20.53;55.50;100076.69;5028529;28;20433;-45
2021/08/01 04:50:22;;;;;;;3.10;2.75;;;;;;;20.54;55.41;100083.75;5032404;28;20083;-44
2021/08/01 04:52:51;;;;;;;3.40;2.67;;;;;;;20.52;55.44;100088.38;5033129;28;20025;-45
2021/08/01 04:55:17;;;;;;;2.83;2.63;;;;;;;20.51;55.42;100078.63;5048148;28;20032;-45
2021/08/01 04:57:43;;;;;;;3.15;2.38;;;;;;;20.49;55.39;100075.16;5049786;28;20061;-45
2021/08/01 05:00:09;;;;;;;2.95;2.75;;;;;;;20.50;55.55;100071.50;5046677;28;20025;-45
2021/08/01 05:02:34;;;;;;;2.67;2.33;;;;;;;20.49;55.53;100075.16;5044661;28;20127;-45
2021/08/01 05:05:01;;;;;;;2.58;2.35;;;;;;;20.49;55.51;100075.16;5013183;28;20116;-45
2021/08/01 05:07:26;;;;;;;2.92;2.72;;;;;;;20.48;55.53;100074.28;5050078;28;20075;-45
2021/08/01 05:09:52;;;;;;;4.00;2.90;;;;;;;20.48;55.48;100076.97;5051962;28;20520;-45
2021/08/01 05:12:17;;;;;;;3.72;2.45;;;;;;;20.46;55.58;100078.00;5050885;28;20079;-44
2021/08/01 05:14:43;;;;;;;3.47;2.85;;;;;;;20.46;55.57;100084.25;5049659;28;20029;-45
2021/08/01 05:17:08;;;;;;;2.70;2.50;;;;;;;20.45;55.46;100078.97;5050795;28;20497;-45
2021/08/01 05:19:38;;;;;;;3.22;2.63;;;;;;;20.45;55.50;100084.34;5050957;28;20413;-45
2021/08/01 05:22:04;;;;;;;4.80;2.63;;;;;;;20.43;55.59;100078.19;5052422;28;20021;-45
2021/08/01 05:24:29;;;;;;;4.05;2.50;;;;;;;20.44;55.65;100082.63;5034591;28;20025;-45
2021/08/01 05:26:54;;;;;;;3.22;2.92;;;;;;;20.42;55.79;100063.09;5046741;28;20029;-45
2021/08/01 05:29:19;;;;;;;3.08;2.63;;;;;;;20.42;55.64;100066.63;5049074;28;20029;-45
2021/08/01 05:31:45;;;;;;;3.03;2.70;;;;;;;20.41;55.73;100067.59;5052384;28;20033;-45
2021/08/01 05:34:10;;;;;;;3.17;2.88;;;;;;;20.41;55.71;100069.41;5034680;28;20047;-45
2021/08/01 05:36:35;;;;;;;2.40;2.20;;;;;;;20.40;55.52;100065.00;5030273;28;20014;-45
2021/08/01 05:39:01;;;;;;;3.20;2.88;;;;;;;20.39;55.71;100053.44;5052047;28;20466;-45
2021/08/01 05:41:26;;;;;;;2.78;2.58;;;;;;;20.38;55.77;100049.88;5047006;28;20120;-45
2021/08/01 05:43:52;;;;;;;2.78;2.35;;;;;;;20.39;55.65;100058.78;5032473;28;20032;-44
2021/08/01 05:46:17;;;;;;;3.20;2.90;;;;;;;20.38;55.45;100065.94;5045345;28;20494;-45
2021/08/01 07:18:43;;;;;;;2.97;2.77;;;;;;;20.31;56.21;100094.03;5035953;28;1208600;-46
2021/08/01 07:21:08;;;;;;;4.63;2.50;;;;;;;20.27;56.28;100087.16;5071516;28;20037;-51
2021/08/01 07:23:33;;;;;;;2.60;2.40;;;;;;;20.23;56.29;100083.81;5069707;28;20021;-51
2021/08/01 07:25:59;;;;;;;4.63;3.00;;;;;;;20.21;56.29;100085.69;5044040;22;20541;-47
2021/08/01 07:28:24;;;;;;;3.33;2.70;;;;;;;20.20;56.48;100085.78;5004873;28;20109;-47
2021/08/01 07:30:51;;;;;;;2.97;2.75;;;;;;;20.18;56.59;100079.69;5004668;28;20022;-44
2021/08/01 07:33:18;;;;;;;2.97;2.78;;;;;;;20.16;56.49;100090.47;5005376;28;20057;-45
2021/08/01 07:35:43;;;;;;;3.10;2.90;;;;;;;20.15;56.66;100091.44;4994660;28;20042;-44
2021/08/01 07:38:09;;;;;;;2.90;2.70;;;;;;;20.15;56.72;100093.25;4979480;28;20094;-48
2021/08/01 07:40:34;;;;;;;2.90;2.60;;;;;;;20.14;56.76;100092.38;4973638;28;21563;-47
2021/08/01 07:42:59;;;;;;;2.85;2.65;;;;;;;20.13;56.72;100090.66;4973429;28;20026;-46
2021/08/01 07:45:30;;;;;;;2.78;2.50;;;;;;;20.12;56.74;100087.13;4982554;28;20027;-48
2021/08/01 07:47:55;;;;;;;3.10;2.90;;;;;;;20.10;56.87;100086.34;4976590;28;20038;-45
2021/08/01 07:50:20;;;;;;;2.75;2.55;;;;;;;20.10;56.72;100093.50;4979097;28;20043;-48
2021/08/01 07:52:46;;;;;;;3.42;2.50;;;;;;;20.10;56.74;100086.34;4976694;28;20019;-46
2021/08/01 07:55:15;;;;;;;2.95;2.65;;;;;;;20.10;56.87;100093.50;4981828;28;20070;-45
2021/08/01 07:57:40;;;;;;;2.88;2.67;;;;;;;20.09;56.83;100095.31;4977593;28;20023;-45
2021/08/01 08:00:06;;;;;;;2.97;2.70;;;;;;;20.08;56.86;100098.94;4979967;28;20030;-45
2021/08/01 08:02:31;;;;;;;2.88;2.67;;;;;;;20.09;56.71;100102.47;4972246;28;20022;-46
2021/08/01 08:04:57;;;;;;;2.72;2.53;;;;;;;20.08;56.88;100093.59;4965700;28;20076;-45
2021/08/01 08:07:22;;;;;;;3.80;3.03;;;;;;;20.07;56.94;100094.53;4977207;28;20097;-45
2021/08/01 08:09:49;;;;;;;2.75;2.55;;;;;;;20.06;56.67;100082.13;4977075;28;20573;-45
2021/08/01 08:12:14;;;;;;;2.55;2.35;;;;;;;20.06;56.80;100079.44;4978558;28;20441;-45
2021/08/01 08:14:40;;;;;;;3.78;3.08;;;;;;;20.06;56.80;100084.81;4987564;28;20030;-45
2021/08/01 08:17:05;;;;;;;2.72;2.40;;;;;;;20.08;56.89;100090.06;4959203;28;20474;-45
2021/08/01 08:19:31;;;;;;;2.45;2.25;;;;;;;20.06;56.92;100079.44;4955436;28;20055;-45
2021/08/01 08:21:57;;;;;;;2.70;2.50;;;;;;;20.08;56.90;100087.38;4942531;28;20043;-45
2021/08/01 08:24:25;;;;;;;2.88;2.63;;;;;;;20.06;56.97;100074.09;4943972;28;20118;-45
2021/08/01 08:26:51;;;;;;;2.58;2.38;;;;;;;20.04;56.89;100072.47;4944411;28;20035;-45
2021/08/01 08:29:16;;;;;;;2.67;2.47;;;;;;;20.04;56.89;100075.97;4945990;28;20023;-45
2021/08/01 08:31:48;;;;;;;3.60;2.40;;;;;;;20.06;56.96;100075.91;4939783;28;20114;-45
2021/08/01 08:34:13;;;;;;;3.03;2.47;;;;;;;20.04;56.80;100075.97;4955190;28;20026;-45
2021/08/01 08:36:39;;;;;;;2.83;2.63;;;;;;;20.05;56.81;100075.06;4945832;28;20035;-45
2021/08/01 08:39:04;;;;;;;3.50;2.97;;;;;;;20.02;57.02;100067.19;4960708;28;20503;-45
2021/08/01 08:41:29;;;;;;;2.47;2.28;;;;;;;20.05;57.13;100066.16;4950186;28;20566;-44
2021/08/01 08:43:55;;;;;;;2.67;2.40;;;;;;;20.04;57.05;100064.44;4946749;28;20035;-43
2021/08/01 08:46:20;;;;;;;3.10;2.80;;;;;;;20.03;57.02;100071.59;4944595;28;20491;-44
2021/08/01 08:48:46;;;;;;;3.33;2.60;;;;;;;20.02;56.99;100072.56;4944397;28;20023;-47
2021/08/01 08:51:11;;;;;;;3.20;2.90;;;;;;;20.03;57.19;100084.09;4943790;28;20031;-44
2021/08/01 08:53:43;;;;;;;2.58;2.38;;;;;;;20.02;57.17;100083.25;4945118;28;20015;-44
2021/08/01 08:56:09;;;;;;;2.67;2.47;;;;;;;20.03;57.01;100082.28;4943894;28;20027;-43
2021/08/01 08:58:36;;;;;;;2.97;2.78;;;;;;;20.00;57.12;100086.03;4948573;28;20031;-46
2021/08/01 09:01:01;;;;;;;2.90;2.67;;;;;;;20.02;57.13;100091.28;4931637;28;20027;-46
2021/08/01 09:03:29;;;;;;;3.08;2.85;;;;;;;20.02;57.22;100096.63;4959092;28;20479;-44
2021/08/01 09:05:56;;;;;;;2.72;2.53;;;;;;;20.01;57.23;100100.28;4943344;28;20077;-44
2021/08/01 09:08:23;;;;;;;3.15;2.85;;;;;;;20.01;57.15;100097.59;5034329;23;20128;-45
2021/08/01 09:10:48;;;;;;;4.13;3.60;;;;;;;20.05;58.59;100099.16;5023090;28;20026;-47
2021/08/01 09:13:42;;;;;;;5.15;3.58;;;;;;;19.90;59.22;100092.81;5025496;28;20150;-47
2021/08/01 09:16:07;;;;;;;4.05;3.70;;;;;;;19.88;58.93;100092.91;5013923;28;20037;-48
2021/08/01 09:18:33;;;;;;;7.50;3.88;;;;;;;19.85;59.77;100101.09;5009520;28;20393;-47
2021/08/01 09:20:58;;;;;;;4.07;3.78;;;;;;;19.91;60.21;100107.91;5014407;28;20613;-48
2021/08/01 09:23:23;;;;;;;6.85;4.35;;;;;;;19.99;59.79;100105.72;5009813;28;20176;-47
2021/08/01 09:26:03;;;;;;;4.30;3.75;;;;;;;20.00;59.85;100112.78;5011775;28;20025;-48
2021/08/01 09:28:30;;;;;;;4.77;4.23;;;;;;;20.03;60.23;100106.38;5010154;28;20076;-48
2021/08/01 09:30:58;;;;;;;5.13;4.25;;;;;;;20.05;60.57;100099.16;5010565;28;20320;-47
2021/08/01 09:33:50;;;;;;;4.95;4.15;;;;;;;20.13;60.29;100096.00;5017702;28;20022;-48
2021/08/01 09:36:18;;;;;;;5.20;4.40;;;;;;;20.17;60.72;100097.53;5008766;28;20382;-45
2021/08/01 09:39:06;;;;;;;12.07;4.53;;;;;;;20.22;60.25;100100.81;5008931;28;20523;-48
2021/08/01 09:41:32;;;;;;;11.02;4.95;;;;;;;20.29;60.17;100090.63;5026805;28;20413;-46
2021/08/01 09:44:00;;;;;;;6.23;4.43;;;;;;;20.31;60.26;100088.69;5011535;28;20029;-47
2021/08/01 09:46:46;;;;;;;5.60;4.35;;;;;;;20.37;59.86;100085.66;5011548;28;20025;-46
2021/08/01 09:49:19;;;;;;;6.85;4.63;;;;;;;20.40;60.74;100091.78;5006230;28;20029;-47
2021/08/01 09:51:56;;;;;;;4.47;3.95;;;;;;;20.38;60.02;100090.03;5007635;28;20525;-46
2021/08/01 09:54:25;;;;;;;7.47;4.43;;;;;;;20.38;59.89;100084.69;5006454;28;20049;-46
2021/08/01 09:57:00;;;;;;;10.07;4.60;;;;;;;20.48;59.90;100085.00;5008469;28;20448;-46
2021/08/01 09:59:27;;;;;;;13.10;4.90;;;;;;;20.58;59.94;100085.31;5012238;28;20029;-45
2021/08/01 10:01:54;;;;;;;13.80;5.47;;;;;;;20.66;60.16;100092.00;5006504;28;20037;-48
2021/08/01 10:04:43;;;;;;;14.00;5.20;;;;;;;20.57;60.19;100088.09;5005210;28;20563;-48
2021/08/01 10:07:13;;;;;;;15.00;5.10;;;;;;;20.63;60.36;100091.25;5006268;28;20053;-47
2021/08/01 10:09:39;;;;;;;89.05;11.32;;;;;;;20.69;60.41;100083.78;5012288;28;20033;-51
2021/08/01 10:12:05;;;;;;;15.30;4.50;;;;;;;20.67;60.65;100083.88;5005955;28;20026;-52
2021/08/01 10:14:31;;;;;;;8.90;4.82;;;;;;;20.56;60.80;100084.56;5008727;28;20029;-53
2021/08/01 10:16:57;;;;;;;11.88;5.03;;;;;;;20.65;61.18;100080.44;5007115;28;20018;-50
2021/08/01 10:19:23;;;;;;;17.98;4.75;;;;;;;20.68;60.57;100076.72;5008541;28;20029;-48
2021/08/01 10:21:50;;;;;;;8.63;4.20;;;;;;;20.57;61.06;100062.16;5011466;28;20053;-49
2021/08/01 10:24:18;;;;;;;7.80;3.90;;;;;;;20.57;60.63;100070.19;5013312;28;20606;-50
2021/08/01 10:26:51;;;;;;;9.18;4.13;;;;;;;20.53;60.36;100065.97;5011832;28;20022;-49
2021/08/01 10:29:22;;;;;;;7.07;3.97;;;;;;;20.54;60.09;100065.00;5010145;28;20053;-49
2021/08/01 10:31:54;;;;;;;9.60;4.70;;;;;;;20.50;59.82;100060.81;5002254;28;20081;-49
2021/08/01 10:34:36;;;;;;;4.93;3.97;;;;;;;20.49;59.86;100053.72;5010349;28;20064;-50
2021/08/01 10:37:05;;;;;;;8.30;4.20;;;;;;;20.47;59.69;100055.66;5011301;28;20795;-49
2021/08/01 10:39:32;;;;;;;5.70;4.30;;;;;;;20.44;59.77;100053.16;5010711;28;20036;-48
2021/08/01 10:42:01;;;;;;;6.65;4.00;;;;;;;20.42;59.62;100052.38;5009869;28;20021;-50
2021/08/01 10:44:29;;;;;;;3.67;3.38;;;;;;;20.42;59.55;100050.56;5010839;28;20508;-50
2021/08/01 10:46:54;;;;;;;4.95;3.90;;;;;;;20.41;59.61;100051.53;5013100;28;20083;-48
2021/08/01 10:49:20;;;;;;;5.35;3.40;;;;;;;20.38;59.51;100052.56;5010146;28;20033;-49
2021/08/01 10:51:45;;;;;;;8.23;3.88;;;;;;;20.38;59.48;100049.88;5009227;28;20470;-49
2021/08/01 10:54:31;;;;;;;4.30;3.90;;;;;;;20.40;59.36;100041.75;5005580;28;20025;-48
2021/08/01 10:57:17;;;;;;;4.10;3.78;;;;;;;20.37;59.50;100040.13;5001028;28;20036;-49
2021/08/01 10:59:46;;;;;;;4.82;3.33;;;;;;;20.36;59.47;100041.09;5010056;28;20413;-46
2021/08/01 11:02:20;;;;;;;4.43;3.72;;;;;;;20.35;59.59;100039.38;5006508;28;20040;-49
2021/08/01 11:04:47;;;;;;;4.82;4.28;;;;;;;20.36;59.51;100035.75;5007694;28;20073;-45
2021/08/01 11:07:33;;;;;;;5.65;3.75;;;;;;;20.36;59.50;100025.03;5009211;28;20120;-47
2021/08/01 11:10:03;;;;;;;3.72;3.42;;;;;;;20.36;59.54;100025.03;4983917;28;20052;-45
2021/08/01 11:12:30;;;;;;;;;;;;;;;20.36;59.38;100017.00;5009372;28;20140;-48
2021/08/01 11:14:55;;;;;;;4.10;3.60;;;;;;;20.35;59.36;100020.63;5010592;28;19944;-49
2021/08/01 11:18:05;;;;;;;4.07;3.78;;;;;;;20.36;59.38;100008.09;5010660;28;20461;-49
2021/08/01 11:20:32;;;;;;;3.72;3.22;;;;;;;20.34;59.60;100018.03;5008089;28;20030;-45
2021/08/01 11:23:03;;;;;;;4.05;3.42;;;;;;;20.34;59.35;100010.84;5009896;28;20377;-50
2021/08/01 11:25:33;;;;;;;5.57;3.90;;;;;;;20.34;59.30;100012.69;5006240;28;20121;-46
2021/08/01 11:28:10;;;;;;;3.80;3.50;;;;;;;20.35;59.24;100009.06;5005019;28;20374;-48
2021/08/01 11:30:51;;;;;;;4.65;3.72;;;;;;;20.36;59.23;100016.13;5004335;28;20037;-46
2021/08/01 11:33:33;;;;;;;3.80;3.50;;;;;;;20.36;59.20;100018.78;5011890;28;20257;-51
2021/08/01 11:36:10;;;;;;;4.20;3.80;;;;;;;20.35;59.28;100009.94;5011302;28;20021;-45
2021/08/01 11:38:48;;;;;;;4.20;3.83;;;;;;;20.36;59.41;100017.00;5008247;28;20029;-46
2021/08/01 11:41:35;;;;;;;4.88;4.00;;;;;;;20.36;59.27;100006.28;5009295;28;20452;-47
2021/08/01 11:44:07;;;;;;;6.55;4.55;;;;;;;20.34;59.25;100008.19;5006443;28;20038;-46
2021/08/01 11:47:06;;;;;;;4.45;4.07;;;;;;;20.37;59.19;99997.28;5008630;28;20074;-45
2021/08/01 11:49:34;;;;;;;5.05;4.65;;;;;;;20.35;59.18;100007.25;5005550;28;20072;-49
2021/08/01 11:52:02;;;;;;;4.80;4.30;;;;;;;20.34;59.25;100002.81;5013661;28;20121;-48
2021/08/01 11:54:35;;;;;;;5.65;4.18;;;;;;;20.36;59.26;99995.56;5008668;28;20110;-48
2021/08/01 11:57:14;;;;;;;5.68;4.30;;;;;;;20.37;59.30;99994.59;5006483;28;20021;-44
2021/08/01 11:59:41;;;;;;;4.40;4.00;;;;;;;20.38;59.19;99999.00;5012517;28;20022;-46
2021/08/01 12:02:09;;;;;;;4.05;3.75;;;;;;;20.37;59.30;99981.22;5018238;28;20406;-45
2021/08/01 12:04:34;;;;;;;4.75;4.35;;;;;;;20.40;59.21;99990.03;5012645;28;20026;-45
2021/08/01 12:07:03;;;;;;;4.25;3.90;;;;;;;20.40;59.09;99995.38;5009615;28;20026;-49
2021/08/01 12:09:30;;;;;;;5.63;4.53;;;;;;;20.37;59.28;99991.94;5008142;28;20045;-46
2021/08/01 12:12:07;;;;;;;4.72;4.32;;;;;;;20.37;59.19;99989.25;5013465;28;20456;-45
2021/08/01 12:14:33;;;;;;;4.70;4.30;;;;;;;20.37;59.12;99991.06;5015022;28;20089;-46
2021/08/01 12:17:04;;;;;;;4.40;4.00;;;;;;;20.37;59.21;100002.63;5008796;28;20358;-46
2021/08/01 12:19:39;;;;;;;;;;;;;;;20.39;59.11;99997.19;5013313;28;20477;-45
2021/08/01 12:22:09;;;;;;;5.00;4.60;;;;;;;20.36;59.12;99990.22;5013252;28;20003;-45
2021/08/01 12:24:38;;;;;;;4.80;4.37;;;;;;;20.35;59.21;99996.53;5010097;28;20077;-48
2021/08/01 12:27:06;;;;;;;4.65;4.20;;;;;;;20.33;59.25;99995.75;5006400;28;20026;-45
2021/08/01 12:29:53;;;;;;;5.15;4.65;;;;;;;20.35;59.31;99999.22;5012612;28;20033;-45
2021/08/01 12:32:38;;;;;;;4.80;4.40;;;;;;;20.35;59.29;99999.22;5012837;28;20030;-46
2021/08/01 12:35:11;;;;;;;7.00;4.93;;;;;;;20.36;59.25;100000.06;5008538;28;20462;-45
2021/08/01 12:38:03;;;;;;;5.35;4.95;;;;;;;20.35;59.25;99998.34;5011780;28;20033;-45
2021/08/01 12:40:58;;;;;;;5.20;4.70;;;;;;;20.35;59.18;99996.53;5012189;28;20025;-46
2021/08/01 12:43:27;;;;;;;5.13;4.63;;;;;;;20.37;59.15;99997.28;5002609;28;20228;-47
2021/08/01 12:45:54;;;;;;;5.70;5.10;;;;;;;20.37;59.17;99985.69;5009457;28;20037;-45
2021/08/01 12:48:19;;;;;;;5.05;4.65;;;;;;;20.38;59.22;99982.94;5010542;28;20030;-46
2021/08/01 12:50:50;;;;;;;4.83;4.40;;;;;;;20.40;59.06;99990.03;5011245;28;20025;-45
2021/08/01 12:53:17;;;;;;;4.68;4.28;;;;;;;20.38;59.07;99974.91;5002638;28;20029;-45
2021/08/01 12:55:43;;;;;;;5.32;4.88;;;;;;;20.35;59.22;99964.41;5010368;28;20041;-47
2021/08/01 12:58:09;;;;;;;5.10;4.70;;;;;;;20.40;59.12;99976.66;5008112;28;20032;-47
2021/08/01 13:00:36;;;;;;;4.85;4.50;;;;;;;20.41;58.98;99981.91;5011841;28;20021;-46
2021/08/01 13:03:05;;;;;;;4.90;4.50;;;;;;;20.41;59.04;99970.31;5009262;28;20038;-45
2021/08/01 13:05:33;;;;;;;4.88;4.47;;;;;;;20.42;59.14;99974.72;5006890;28;20512;-45